AirNav   Air Wisconsin Up To $57,000 Bonus
 
 1397 users online  

0KS7 Mono Aircraft Airport
Cheney, Kansas, USA

GOING TO CHENEY?


FAA INFORMATION EFFECTIVE 15 JULY 2021

Location

FAA Identifier: 0KS7
Lat/Long: 37-42-00.6700N 097-53-13.9900W
37-42.011167N 097-53.233167W
37.7001861,-97.8872194
(estimated)
Elevation: 1510 ft. / 460 m (estimated)
Variation: 07E (1985)
From city: 10 miles NW of CHENEY, KS
Time zone: UTC -5 (UTC -6 during Standard Time)
Zip code: 67025

Airport Operations

Airport use: Private use. Permission required prior to landing
Activation date: 05/1991
Control tower: no
ARTCC: KANSAS CITY CENTER
FSS: WICHITA FLIGHT SERVICE STATION
Attendance: CONTINUOUS
Segmented circle: no

Airport Communications

WX AWOS-3 at 9K8 (11 nm W): 119.325 (620-532-1272)

Nearby radio navigation aids

VOR radial/distance  VOR name  Freq  Var
ICTr252/14.7WICHITA VORTAC113.8007E
HUTr169/17.9HUTCHINSON VOR/DME116.8004E

Airport Services

Fuel available: MOGAS

Runway Information

Runway 18/36

Dimensions: 2000 x 75 ft. / 610 x 23 m
Surface: turf
RUNWAY 18  RUNWAY 36
Latitude: 37-42.175833N37-41.846333N
Longitude: 097-53.231167W097-53.234833W
Elevation: 1510.0 ft.1503.0 ft.
Traffic pattern: leftleft
Runway heading: 173 magnetic, 180 true353 magnetic, 360 true

Airport Ownership and Management from official FAA records

Ownership: Privately-owned
Owner: EDWARD & LEO SAURENMAN
RR 2 BOX 186A
CHENEY, KANSAS 67025
Phone 316-297-4411
Manager: EDWARD & LEO SAURENMAN
RR 2 BOX 186A
CHENEY, KANSAS 67025
Phone 316-297-4411

Additional Remarks

E11 PRVDD APCH MAINT FOR A 20:1 GLIDE SLOPE; MAINT TRANSITIONAL SURFACE FOR A 7:1 SLOPE.
FOR CD CTC WICHITA APCH AT 316-350-1520.

Instrument Procedures

There are no published instrument procedures at 0KS7.

Some nearby airports with instrument procedures:

9K8 - Kingman Airport/Clyde Cessna Field (11 nm W)
KICT - Wichita Dwight D Eisenhower National Airport (22 nm E)
KHUT - Hutchinson Regional Airport (22 nm N)
8K2 - Harper Municipal Airport (26 nm S)
KIAB - Mc Connell Air Force Base (30 nm E)
 
Loc | Ops | Rwys | IFR | FBO | Links
Com | Nav | Svcs | Stats | Notes
Area around 0KS7 (Mono Aircraft Airport)
 
Road maps at: MapQuest Bing Google
 
Aerial photo
No photo
 
Sectional chart

 
Airport distance calculator
Flying to Mono Aircraft Airport? Find the distance to fly.

From to 0KS7

Sunrise and sunset
Times for 05-Aug-2021
 Local
(UTC-5)
 Zulu
(UTC)
Morning civil twilight06:1111:11
Sunrise06:4011:40
Sunset20:3501:35
Evening civil twilight21:0402:04

Current date and time
Zulu (UTC)  05-Aug-2021 14:01:07
Local (UTC-5)  05-Aug-2021 09:01:07
 
METAR
KICT 
22nm E 
051353Z 19007KT 9SM FEW090 SCT110 BKN160 24/18 A3008 RMK AO2 SLP172 T02390178
KHUT 
22nm N 
051352Z 21006KT 9SM FEW100 24/16 A3008 RMK AO2 SLP163 T02440156
KIAB 
30nm E 
051356Z AUTO 23009KT 10SM FEW200 23/17 A3009 RMK AO2 SLP181 T02310166 $
KBEC 
32nm E 
051335Z AUTO 20007KT 10SM CLR 23/16 A3008 RMK AO2 T02250162
KAAO 
32nm E 
051354Z AUTO 21009KT 10SM CLR 24/16 A3008 RMK AO2 SLP174 T02440161
KEWK 
36nm NE 
051356Z AUTO 21011KT 10SM CLR A3009 RMK AO2 SLPNO FZRANO $
K1K1 
37nm E 
051335Z AUTO 21008KT 10SM CLR 23/17 A3009 RMK AO2 T02250165
K3AU 
38nm E 
051330Z AUTO 20005KT 10SM CLR 22/16 A3008 RMK AO2
KP28 
40nm SW 
051256Z AUTO 00000KT 21/17 A3009 RMK AO1 SLP174 T02110167 $
KPTT 
41nm W 
051335Z AUTO 20004KT 10SM CLR 21/18 A3011 RMK AO2 T02060176
TAF
KICT 
22nm E 
051126Z 0512/0612 18005KT P6SM SCT030 BKN100 FM052000 18010KT P6SM FEW060 SCT200 FM060400 16009KT P6SM FEW250
KHUT 
22nm N 
051126Z 0512/0612 VRB04KT P6SM SCT035 BKN100 FM051700 20008KT P6SM FEW060 SCT200 FM052100 19011KT P6SM FEW080 SCT150 FM060100 17010KT P6SM FEW050 FEW250
NOTAMs
Click for the latest NOTAMs
NOTAMs are issued by the DoD/FAA and will open in a separate window not controlled by AirNav.

 

 
 

Would you like to see your business listed on this page?

 If your business provides an interesting product or service to pilots, flight crews, aircraft, or users of the Mono Aircraft Airport, you should consider listing it here.  To start the listing process, click on the button below
 
Add a business
 

Other Pages about Mono Aircraft Airport

Update a link
 
Copyright © AirNav, LLC. All rights reserved. Privacy Policy  Contact